sensor_id;sensor_type;location;lat;lon;timestamp;pressure;altitude;pressure_sealevel;temperature;humidity
63439;BME280;49567;48.958;8.294;2023-03-25T00:01:41;99765.22;;;11.43;75.87
63439;BME280;49567;48.958;8.294;2023-03-25T00:04:06;99758.72;;;11.44;75.79
63439;BME280;49567;48.958;8.294;2023-03-25T00:06:32;99748.13;;;11.43;75.30
63439;BME280;49567;48.958;8.294;2023-03-25T00:09:01;99742.41;;;11.39;75.06
63439;BME280;49567;48.958;8.294;2023-03-25T00:11:27;99740.00;;;11.38;74.55
63439;BME280;49567;48.958;8.294;2023-03-25T00:13:53;99738.91;;;11.39;73.80
63439;BME280;49567;48.958;8.294;2023-03-25T00:16:18;99740.25;;;11.36;73.42
63439;BME280;49567;48.958;8.294;2023-03-25T00:18:44;99742.16;;;11.36;73.41
63439;BME280;49567;48.958;8.294;2023-03-25T00:21:12;99726.97;;;11.35;73.28
63439;BME280;49567;48.958;8.294;2023-03-25T00:23:39;99731.53;;;11.24;72.92
63439;BME280;49567;48.958;8.294;2023-03-25T00:26:06;99740.22;;;11.16;73.28
63439;BME280;49567;48.958;8.294;2023-03-25T00:28:33;99728.81;;;11.24;73.35
63439;BME280;49567;48.958;8.294;2023-03-25T00:31:02;99731.78;;;11.18;73.65
63439;BME280;49567;48.958;8.294;2023-03-25T00:33:28;99730.72;;;11.24;74.03
63439;BME280;49567;48.958;8.294;2023-03-25T00:35:54;99724.75;;;11.27;74.33
63439;BME280;49567;48.958;8.294;2023-03-25T00:38:30;99731.03;;;11.32;74.69
63439;BME280;49567;48.958;8.294;2023-03-25T00:41:16;99717.22;;;11.39;74.48
63439;BME280;49567;48.958;8.294;2023-03-25T00:43:48;99723.72;;;11.43;74.67
63439;BME280;49567;48.958;8.294;2023-03-25T00:46:13;99714.78;;;11.48;74.11
63439;BME280;49567;48.958;8.294;2023-03-25T00:48:40;99712.06;;;11.48;74.06
63439;BME280;49567;48.958;8.294;2023-03-25T00:51:06;99706.09;;;11.45;74.10
63439;BME280;49567;48.958;8.294;2023-03-25T00:53:34;99702.56;;;11.50;73.82
63439;BME280;49567;48.958;8.294;2023-03-25T00:56:00;99689.28;;;11.49;73.86
63439;BME280;49567;48.958;8.294;2023-03-25T00:58:26;99693.06;;;11.48;73.65
63439;BME280;49567;48.958;8.294;2023-03-25T01:00:52;99690.38;;;11.42;73.22
63439;BME280;49567;48.958;8.294;2023-03-25T01:03:17;99693.06;;;11.37;72.62
63439;BME280;49567;48.958;8.294;2023-03-25T01:05:42;99691.41;;;11.36;72.93
63439;BME280;49567;48.958;8.294;2023-03-25T01:08:08;99686.00;;;11.41;72.60
63439;BME280;49567;48.958;8.294;2023-03-25T01:10:35;99682.19;;;11.37;72.06
63439;BME280;49567;48.958;8.294;2023-03-25T01:13:01;99666.19;;;11.41;71.62
63439;BME280;49567;48.958;8.294;2023-03-25T01:15:26;99661.06;;;11.44;71.48
63439;BME280;49567;48.958;8.294;2023-03-25T01:17:52;99659.69;;;11.37;70.87
63439;BME280;49567;48.958;8.294;2023-03-25T01:20:17;99671.09;;;11.39;70.61
63439;BME280;49567;48.958;8.294;2023-03-25T01:22:42;99677.59;;;11.43;70.30
63439;BME280;49567;48.958;8.294;2023-03-25T01:25:08;99691.44;;;11.41;70.16
63439;BME280;49567;48.958;8.294;2023-03-25T01:27:33;99722.88;;;11.37;71.02
63439;BME280;49567;48.958;8.294;2023-03-25T01:29:58;99732.91;;;11.27;72.95
63439;BME280;49567;48.958;8.294;2023-03-25T01:32:23;99744.31;;;11.29;73.75
63439;BME280;49567;48.958;8.294;2023-03-25T01:34:49;99773.00;;;11.15;75.47
63439;BME280;49567;48.958;8.294;2023-03-25T01:37:14;99762.09;;;11.00;76.38
63439;BME280;49567;48.958;8.294;2023-03-25T01:39:39;99767.13;;;10.81;76.93
63439;BME280;49567;48.958;8.294;2023-03-25T01:42:05;99769.00;;;10.75;77.07
63439;BME280;49567;48.958;8.294;2023-03-25T01:45:18;99761.69;;;10.76;78.14
63439;BME280;49567;48.958;8.294;2023-03-25T01:47:16;99755.47;;;10.75;78.34
63439;BME280;49567;48.958;8.294;2023-03-25T01:49:43;99744.84;;;10.69;78.05
63439;BME280;49567;48.958;8.294;2023-03-25T01:52:14;99767.59;;;10.63;77.99
63439;BME280;49567;48.958;8.294;2023-03-25T01:54:41;99751.56;;;10.56;77.95
63439;BME280;49567;48.958;8.294;2023-03-25T01:57:08;99744.44;;;10.45;77.84
63439;BME280;49567;48.958;8.294;2023-03-25T01:59:35;99747.66;;;10.42;78.19
63439;BME280;49567;48.958;8.294;2023-03-25T02:02:03;99715.94;;;10.37;78.32
63439;BME280;49567;48.958;8.294;2023-03-25T02:04:38;99729.22;;;10.39;78.47
63439;BME280;49567;48.958;8.294;2023-03-25T02:07:06;99703.19;;;10.33;78.38
63439;BME280;49567;48.958;8.294;2023-03-25T02:09:35;99720.03;;;10.40;78.41
63439;BME280;49567;48.958;8.294;2023-03-25T02:12:01;99702.22;;;10.49;78.45
63439;BME280;49567;48.958;8.294;2023-03-25T02:14:30;99709.28;;;10.50;78.05
63439;BME280;49567;48.958;8.294;2023-03-25T02:29:02;99733.59;;;10.45;77.70
63439;BME280;49567;48.958;8.294;2023-03-25T02:31:45;99739.84;;;10.46;77.41
63439;BME280;49567;48.958;8.294;2023-03-25T02:42:44;99744.19;;;10.47;77.17
63439;BME280;49567;48.958;8.294;2023-03-25T02:47:54;99745.78;;;10.43;77.24
63439;BME280;49567;48.958;8.294;2023-03-25T02:50:34;99742.00;;;10.44;76.97
63439;BME280;49567;48.958;8.294;2023-03-25T02:53:04;99752.53;;;10.40;77.41
63439;BME280;49567;48.958;8.294;2023-03-25T02:55:35;99761.13;;;10.32;77.49
63439;BME280;49567;48.958;8.294;2023-03-25T02:58:03;99744.88;;;10.27;77.57
63439;BME280;49567;48.958;8.294;2023-03-25T03:00:30;99741.03;;;10.23;77.85
63439;BME280;49567;48.958;8.294;2023-03-25T03:03:01;99745.13;;;10.25;77.85
63439;BME280;49567;48.958;8.294;2023-03-25T03:05:31;99742.59;;;10.14;78.03
63439;BME280;49567;48.958;8.294;2023-03-25T03:11:06;99759.44;;;10.21;77.89
63439;BME280;49567;48.958;8.294;2023-03-25T03:19:05;99745.41;;;10.24;76.70
63439;BME280;49567;48.958;8.294;2023-03-25T03:24:15;99751.81;;;10.18;76.38
63439;BME280;49567;48.958;8.294;2023-03-25T03:27:16;99749.16;;;10.23;76.10
63439;BME280;49567;48.958;8.294;2023-03-25T03:29:51;99762.22;;;10.31;75.99
63439;BME280;49567;48.958;8.294;2023-03-25T03:32:40;99762.22;;;10.31;75.58
63439;BME280;49567;48.958;8.294;2023-03-25T03:35:16;99765.19;;;10.29;75.51
63439;BME280;49567;48.958;8.294;2023-03-25T03:37:50;99761.91;;;10.27;75.24
63439;BME280;49567;48.958;8.294;2023-03-25T03:40:18;99759.47;;;10.26;75.32
63439;BME280;49567;48.958;8.294;2023-03-25T03:42:58;99767.13;;;10.34;75.13
63439;BME280;49567;48.958;8.294;2023-03-25T03:45:46;99771.97;;;10.32;75.14
63439;BME280;49567;48.958;8.294;2023-03-25T03:48:20;99773.31;;;10.29;75.01
63439;BME280;49567;48.958;8.294;2023-03-25T03:50:53;99766.31;;;10.33;74.84
63439;BME280;49567;48.958;8.294;2023-03-25T03:53:28;99780.06;;;10.27;74.96
63439;BME280;49567;48.958;8.294;2023-03-25T03:56:05;99779.56;;;10.35;74.58
63439;BME280;49567;48.958;8.294;2023-03-25T03:58:35;99776.88;;;10.35;74.54
63439;BME280;49567;48.958;8.294;2023-03-25T04:01:20;99772.50;;;10.29;74.28
63439;BME280;49567;48.958;8.294;2023-03-25T04:03:56;99773.88;;;10.31;74.25
63439;BME280;49567;48.958;8.294;2023-03-25T04:06:26;99770.56;;;10.24;74.19
63439;BME280;49567;48.958;8.294;2023-03-25T04:09:02;99778.72;;;10.29;73.99
63439;BME280;49567;48.958;8.294;2023-03-25T04:11:42;99783.94;;;10.36;73.14
63439;BME280;49567;48.958;8.294;2023-03-25T04:14:10;99785.00;;;10.35;72.92
63439;BME280;49567;48.958;8.294;2023-03-25T04:16:37;99783.94;;;10.36;72.36
63439;BME280;49567;48.958;8.294;2023-03-25T04:19:04;99794.78;;;10.41;72.56
63439;BME280;49567;48.958;8.294;2023-03-25T04:21:30;99789.41;;;10.46;72.26
63439;BME280;49567;48.958;8.294;2023-03-25T04:23:55;99777.22;;;10.44;72.33
63439;BME280;49567;48.958;8.294;2023-03-25T04:26:28;99783.44;;;10.44;72.05
63439;BME280;49567;48.958;8.294;2023-03-25T04:28:57;99775.88;;;10.46;71.92
63439;BME280;49567;48.958;8.294;2023-03-25T04:31:23;99757.47;;;10.48;71.88
63439;BME280;49567;48.958;8.294;2023-03-25T04:33:50;99748.50;;;10.43;71.89
63439;BME280;49567;48.958;8.294;2023-03-25T04:36:15;99760.16;;;10.43;71.87
63439;BME280;49567;48.958;8.294;2023-03-25T04:38:41;99759.06;;;10.44;71.54
63439;BME280;49567;48.958;8.294;2023-03-25T04:41:10;99755.31;;;10.50;71.35
63439;BME280;49567;48.958;8.294;2023-03-25T04:43:36;99764.53;;;10.49;71.09
63439;BME280;49567;48.958;8.294;2023-03-25T04:46:03;99753.69;;;10.49;71.16
63439;BME280;49567;48.958;8.294;2023-03-25T04:48:29;99751.22;;;10.48;71.03
63439;BME280;49567;48.958;8.294;2023-03-25T04:50:57;99757.16;;;10.45;71.25
63439;BME280;49567;48.958;8.294;2023-03-25T04:53:23;99762.34;;;10.51;70.97
63439;BME280;49567;48.958;8.294;2023-03-25T04:55:49;99765.34;;;10.55;70.52
63439;BME280;49567;48.958;8.294;2023-03-25T04:58:16;99760.50;;;10.57;70.39
63439;BME280;49567;48.958;8.294;2023-03-25T05:00:42;99768.38;;;10.58;70.21
63439;BME280;49567;48.958;8.294;2023-03-25T05:03:09;99772.13;;;10.57;70.02
63439;BME280;49567;48.958;8.294;2023-03-25T05:05:36;99769.72;;;10.56;70.12
63439;BME280;49567;48.958;8.294;2023-03-25T05:08:02;99778.91;;;10.55;69.62
63439;BME280;49567;48.958;8.294;2023-03-25T05:10:27;99775.66;;;10.53;69.63
63439;BME280;49567;48.958;8.294;2023-03-25T05:13:01;99777.28;;;10.54;69.70
63439;BME280;49567;48.958;8.294;2023-03-25T05:15:29;99772.38;;;10.51;69.51
63439;BME280;49567;48.958;8.294;2023-03-25T05:17:56;99780.78;;;10.54;69.69
63439;BME280;49567;48.958;8.294;2023-03-25T05:20:22;99772.44;;;10.61;69.81
63439;BME280;49567;48.958;8.294;2023-03-25T05:22:47;99778.38;;;10.58;69.27
63439;BME280;49567;48.958;8.294;2023-03-25T05:25:13;99775.38;;;10.54;69.13
63439;BME280;49567;48.958;8.294;2023-03-25T05:27:38;99780.00;;;10.54;69.24
63439;BME280;49567;48.958;8.294;2023-03-25T05:30:05;99778.94;;;10.60;69.07
63439;BME280;49567;48.958;8.294;2023-03-25T05:32:31;99786.78;;;10.56;69.14
63439;BME280;49567;48.958;8.294;2023-03-25T05:35:00;99785.97;;;10.61;69.02
63439;BME280;49567;48.958;8.294;2023-03-25T05:37:26;99787.09;;;10.65;68.89
63439;BME280;49567;48.958;8.294;2023-03-25T05:39:51;99793.09;;;10.67;68.89
63439;BME280;49567;48.958;8.294;2023-03-25T05:42:17;99790.63;;;10.65;69.02
63439;BME280;49567;48.958;8.294;2023-03-25T05:44:46;99786.31;;;10.69;68.92
63439;BME280;49567;48.958;8.294;2023-03-25T05:47:16;99783.91;;;10.73;69.10
63439;BME280;49567;48.958;8.294;2023-03-25T05:49:42;99788.50;;;10.72;69.22
63439;BME280;49567;48.958;8.294;2023-03-25T05:52:07;99783.91;;;10.73;69.35
63439;BME280;49567;48.958;8.294;2023-03-25T05:54:33;99778.78;;;10.76;69.44
63439;BME280;49567;48.958;8.294;2023-03-25T05:57:03;99784.50;;;10.80;69.44
63439;BME280;49567;48.958;8.294;2023-03-25T05:59:28;99779.63;;;10.82;69.64
63439;BME280;49567;48.958;8.294;2023-03-25T06:01:53;99780.16;;;10.79;69.74
63439;BME280;49567;48.958;8.294;2023-03-25T06:04:19;99789.06;;;10.74;69.97
63439;BME280;49567;48.958;8.294;2023-03-25T06:06:45;99784.22;;;10.76;70.24
63439;BME280;49567;48.958;8.294;2023-03-25T06:09:11;99786.63;;;10.78;70.04
63439;BME280;49567;48.958;8.294;2023-03-25T06:11:36;99789.09;;;10.79;70.42
63439;BME280;49567;48.958;8.294;2023-03-25T06:14:03;99783.38;;;10.76;70.29
63439;BME280;49567;48.958;8.294;2023-03-25T06:16:28;99788.50;;;10.72;70.31
63439;BME280;49567;48.958;8.294;2023-03-25T06:18:54;99793.13;;;10.77;70.39
63439;BME280;49567;48.958;8.294;2023-03-25T06:21:27;99797.00;;;10.86;70.06
63439;BME280;49567;48.958;8.294;2023-03-25T06:23:53;99797.06;;;11.01;69.86
63439;BME280;49567;48.958;8.294;2023-03-25T06:26:20;99802.50;;;11.01;69.94
63439;BME280;49567;48.958;8.294;2023-03-25T06:28:46;99801.13;;;10.99;70.48
63439;BME280;49567;48.958;8.294;2023-03-25T06:31:22;99808.44;;;10.98;70.37
63439;BME280;49567;48.958;8.294;2023-03-25T06:33:51;99805.47;;;11.00;70.48
63439;BME280;49567;48.958;8.294;2023-03-25T06:36:18;99811.16;;;11.03;70.17
63439;BME280;49567;48.958;8.294;2023-03-25T06:38:45;99807.44;;;11.09;69.88
63439;BME280;49567;48.958;8.294;2023-03-25T06:41:11;99812.03;;;11.14;69.22
63439;BME280;49567;48.958;8.294;2023-03-25T06:43:38;99814.16;;;11.07;69.35
63439;BME280;49567;48.958;8.294;2023-03-25T06:46:04;99808.25;;;11.20;69.08
63439;BME280;49567;48.958;8.294;2023-03-25T06:48:29;99819.09;;;11.20;68.99
63439;BME280;49567;48.958;8.294;2023-03-25T06:50:55;99824.06;;;11.33;68.41
63439;BME280;49567;48.958;8.294;2023-03-25T06:53:20;99820.06;;;11.45;67.99
63439;BME280;49567;48.958;8.294;2023-03-25T06:55:46;99818.41;;;11.50;67.95
63439;BME280;49567;48.958;8.294;2023-03-25T06:58:11;99819.19;;;11.40;68.05
63439;BME280;49567;48.958;8.294;2023-03-25T07:00:36;99814.84;;;11.34;68.50
63439;BME280;49567;48.958;8.294;2023-03-25T07:03:02;99809.41;;;11.29;68.71
63439;BME280;49567;48.958;8.294;2023-03-25T07:05:27;99812.66;;;11.31;68.61
63439;BME280;49567;48.958;8.294;2023-03-25T07:07:53;99806.75;;;11.44;68.03
63439;BME280;49567;48.958;8.294;2023-03-25T07:10:18;99806.75;;;11.44;68.20
63439;BME280;49567;48.958;8.294;2023-03-25T07:12:44;99808.16;;;11.62;68.04
63439;BME280;49567;48.958;8.294;2023-03-25T07:15:09;99812.53;;;11.73;67.61
63439;BME280;49567;48.958;8.294;2023-03-25T07:17:34;99811.25;;;12.26;66.27
63439;BME280;49567;48.958;8.294;2023-03-25T07:20:00;99811.25;;;12.46;64.67
63439;BME280;49567;48.958;8.294;2023-03-25T07:22:25;99813.44;;;12.04;66.15
63439;BME280;49567;48.958;8.294;2023-03-25T07:24:51;99802.28;;;11.90;66.61
63439;BME280;49567;48.958;8.294;2023-03-25T07:27:17;99812.06;;;12.01;66.56
63439;BME280;49567;48.958;8.294;2023-03-25T07:29:42;99812.63;;;12.43;64.96
63439;BME280;49567;48.958;8.294;2023-03-25T07:32:07;99806.66;;;12.36;65.15
63439;BME280;49567;48.958;8.294;2023-03-25T07:34:33;99805.28;;;12.09;65.33
63439;BME280;49567;48.958;8.294;2023-03-25T07:36:58;99807.72;;;11.95;65.78
63439;BME280;49567;48.958;8.294;2023-03-25T07:39:24;99817.47;;;11.96;66.16
63439;BME280;49567;48.958;8.294;2023-03-25T07:41:50;99806.91;;;11.94;65.75
63439;BME280;49567;48.958;8.294;2023-03-25T07:44:16;99805.53;;;11.97;65.93
63439;BME280;49567;48.958;8.294;2023-03-25T07:46:44;99801.75;;;11.98;65.68
63439;BME280;49567;48.958;8.294;2023-03-25T07:49:10;99798.22;;;12.03;65.96
63439;BME280;49567;48.958;8.294;2023-03-25T07:51:35;99788.44;;;12.07;65.92
63439;BME280;49567;48.958;8.294;2023-03-25T07:54:00;99782.75;;;12.08;65.71
63439;BME280;49567;48.958;8.294;2023-03-25T07:56:25;99781.41;;;12.21;65.28
63439;BME280;49567;48.958;8.294;2023-03-25T07:58:51;99788.97;;;12.29;65.26
63439;BME280;49567;48.958;8.294;2023-03-25T08:01:16;99781.63;;;12.70;64.54
63439;BME280;49567;48.958;8.294;2023-03-25T08:03:41;99780.78;;;12.79;63.82
63439;BME280;49567;48.958;8.294;2023-03-25T08:06:07;99791.88;;;12.93;63.79
63439;BME280;49567;48.958;8.294;2023-03-25T08:08:33;99798.44;;;12.82;63.52
63439;BME280;49567;48.958;8.294;2023-03-25T08:10:58;99797.41;;;12.53;63.92
63439;BME280;49567;48.958;8.294;2023-03-25T08:13:24;99812.63;;;12.13;65.96
63439;BME280;49567;48.958;8.294;2023-03-25T08:15:50;99818.00;;;11.78;68.09
63439;BME280;49567;48.958;8.294;2023-03-25T08:18:16;99822.28;;;11.64;69.83
63439;BME280;49567;48.958;8.294;2023-03-25T08:20:41;99810.56;;;11.48;72.06
63439;BME280;49567;48.958;8.294;2023-03-25T08:23:06;99809.47;;;11.44;72.93
63439;BME280;49567;48.958;8.294;2023-03-25T08:25:36;99801.84;;;11.36;73.41
63439;BME280;49567;48.958;8.294;2023-03-25T08:28:02;99821.09;;;11.39;73.89
63439;BME280;49567;48.958;8.294;2023-03-25T08:30:28;99828.03;;;11.82;73.94
63439;BME280;49567;48.958;8.294;2023-03-25T08:32:53;99822.38;;;11.99;73.06
63439;BME280;49567;48.958;8.294;2023-03-25T08:35:19;99831.91;;;12.02;72.40
63439;BME280;49567;48.958;8.294;2023-03-25T08:37:46;99831.06;;;12.06;72.08
63439;BME280;49567;48.958;8.294;2023-03-25T08:40:11;99837.06;;;12.23;71.74
63439;BME280;49567;48.958;8.294;2023-03-25T08:42:37;99838.97;;;12.23;71.63
63439;BME280;49567;48.958;8.294;2023-03-25T08:45:03;99846.88;;;12.24;71.90
63439;BME280;49567;48.958;8.294;2023-03-25T08:47:29;99839.00;;;12.28;71.37
63439;BME280;49567;48.958;8.294;2023-03-25T08:49:55;99838.44;;;12.31;71.59
63439;BME280;49567;48.958;8.294;2023-03-25T08:52:20;99837.91;;;12.54;71.81
63439;BME280;49567;48.958;8.294;2023-03-25T08:54:45;99837.63;;;12.56;71.18
63439;BME280;49567;48.958;8.294;2023-03-25T08:57:11;99835.97;;;12.65;71.03
63439;BME280;49567;48.958;8.294;2023-03-25T08:59:36;99823.22;;;12.50;71.32
63439;BME280;49567;48.958;8.294;2023-03-25T09:02:01;99841.44;;;12.34;71.22
63439;BME280;49567;48.958;8.294;2023-03-25T09:04:27;99843.34;;;12.34;71.76
63439;BME280;49567;48.958;8.294;2023-03-25T09:06:52;99825.66;;;12.46;71.19
63439;BME280;49567;48.958;8.294;2023-03-25T09:09:18;99835.97;;;12.55;71.03
63439;BME280;49567;48.958;8.294;2023-03-25T09:11:43;99844.16;;;12.39;71.53
63439;BME280;49567;48.958;8.294;2023-03-25T09:14:09;99838.13;;;12.02;72.90
63439;BME280;49567;48.958;8.294;2023-03-25T09:16:34;99835.94;;;11.84;74.71
63439;BME280;49567;48.958;8.294;2023-03-25T09:19:00;99839.19;;;11.86;75.70
63439;BME280;49567;48.958;8.294;2023-03-25T09:21:26;99827.81;;;11.99;76.01
63439;BME280;49567;48.958;8.294;2023-03-25T09:23:51;99824.28;;;12.04;75.98
63439;BME280;49567;48.958;8.294;2023-03-25T09:26:17;99824.00;;;12.00;76.07
63439;BME280;49567;48.958;8.294;2023-03-25T09:28:42;99841.16;;;12.26;75.58
63439;BME280;49567;48.958;8.294;2023-03-25T09:31:07;99838.44;;;12.26;75.28
63439;BME280;49567;48.958;8.294;2023-03-25T09:33:33;99842.00;;;12.31;75.88
63439;BME280;49567;48.958;8.294;2023-03-25T09:35:58;99851.22;;;12.45;75.42
63439;BME280;49567;48.958;8.294;2023-03-25T09:38:24;99835.44;;;12.32;75.86
63439;BME280;49567;48.958;8.294;2023-03-25T09:40:49;99835.72;;;12.31;75.93
63439;BME280;49567;48.958;8.294;2023-03-25T09:45:57;99828.41;;;12.31;74.84
63439;BME280;49567;48.958;8.294;2023-03-25T09:50:49;99827.06;;;14.02;72.83
63439;BME280;49567;48.958;8.294;2023-03-25T09:53:24;99829.78;;;14.99;69.26
63439;BME280;49567;48.958;8.294;2023-03-25T09:55:50;99824.69;;;14.92;68.02
63439;BME280;49567;48.958;8.294;2023-03-25T09:58:33;99827.09;;;15.23;66.56
63439;BME280;49567;48.958;8.294;2023-03-25T10:06:31;99820.06;;;16.71;61.32
63439;BME280;49567;48.958;8.294;2023-03-25T10:09:30;99806.31;;;17.44;58.63
63439;BME280;49567;48.958;8.294;2023-03-25T10:17:27;99807.00;;;17.91;54.70
63439;BME280;49567;48.958;8.294;2023-03-25T10:20:23;99808.69;;;16.13;58.14
63439;BME280;49567;48.958;8.294;2023-03-25T10:22:57;99815.53;;;16.94;57.94
63439;BME280;49567;48.958;8.294;2023-03-25T10:25:28;99817.34;;;19.13;51.99
63439;BME280;49567;48.958;8.294;2023-03-25T10:27:55;99822.44;;;20.62;47.46
63439;BME280;49567;48.958;8.294;2023-03-25T10:30:34;99824.53;;;21.96;44.74
63439;BME280;49567;48.958;8.294;2023-03-25T10:33:08;99818.28;;;21.11;
63439;BME280;49567;48.958;8.294;2023-03-25T10:35:41;99818.13;;;22.79;43.51
63439;BME280;49567;48.958;8.294;2023-03-25T10:38:21;99816.66;;;22.60;40.87
63439;BME280;49567;48.958;8.294;2023-03-25T10:40:54;99806.41;;;19.87;45.68
63439;BME280;49567;48.958;8.294;2023-03-25T10:43:39;99803.88;;;18.06;48.27
63439;BME280;49567;48.958;8.294;2023-03-25T10:46:13;99801.97;;;17.02;50.98
63439;BME280;49567;48.958;8.294;2023-03-25T10:48:41;99810.56;;;16.82;51.45
63439;BME280;49567;48.958;8.294;2023-03-25T10:51:09;99814.19;;;16.45;52.59
63439;BME280;49567;48.958;8.294;2023-03-25T10:53:35;99808.63;;;16.69;51.48
63439;BME280;49567;48.958;8.294;2023-03-25T10:56:03;99804.28;;;16.82;50.00
63439;BME280;49567;48.958;8.294;2023-03-25T10:58:31;99808.19;;;16.43;50.66
63439;BME280;49567;48.958;8.294;2023-03-25T11:00:59;99804.50;;;16.34;49.86
63439;BME280;49567;48.958;8.294;2023-03-25T11:03:31;99797.28;;;18.07;47.96
63439;BME280;49567;48.958;8.294;2023-03-25T11:05:58;99800.94;;;21.11;42.06
63439;BME280;49567;48.958;8.294;2023-03-25T11:08:24;99805.88;;;21.85;39.17
63439;BME280;49567;48.958;8.294;2023-03-25T11:10:51;99819.66;;;20.80;40.53
63439;BME280;49567;48.958;8.294;2023-03-25T11:13:26;99811.03;;;18.74;44.50
63439;BME280;49567;48.958;8.294;2023-03-25T11:15:53;99809.91;;;18.30;47.89
63439;BME280;49567;48.958;8.294;2023-03-25T11:18:26;99806.94;;;20.15;46.14
63439;BME280;49567;48.958;8.294;2023-03-25T11:21:00;99816.47;;;20.17;41.44
63439;BME280;49567;48.958;8.294;2023-03-25T11:23:32;99816.94;;;19.85;42.00
63439;BME280;49567;48.958;8.294;2023-03-25T11:26:27;99815.38;;;18.75;44.46
63439;BME280;49567;48.958;8.294;2023-03-25T11:28:55;99827.91;;;17.87;46.43
63439;BME280;49567;48.958;8.294;2023-03-25T11:31:26;99826.91;;;17.15;46.64
63439;BME280;49567;48.958;8.294;2023-03-25T11:36:36;99829.22;;;16.10;49.08
63439;BME280;49567;48.958;8.294;2023-03-25T11:39:36;99831.44;;;15.90;49.67
63439;BME280;49567;48.958;8.294;2023-03-25T11:44:40;99829.72;;;15.56;51.09
63439;BME280;49567;48.958;8.294;2023-03-25T11:47:08;99840.69;;;15.51;51.26
63439;BME280;49567;48.958;8.294;2023-03-25T11:49:35;99842.94;;;16.62;49.58
63439;BME280;49567;48.958;8.294;2023-03-25T11:52:06;99834.66;;;18.03;45.35
63439;BME280;49567;48.958;8.294;2023-03-25T11:54:34;99837.28;;;17.45;46.16
63439;BME280;49567;48.958;8.294;2023-03-25T11:57:24;99830.94;;;19.58;43.62
63439;BME280;49567;48.958;8.294;2023-03-25T12:00:00;99836.00;;;19.73;41.99
63439;BME280;49567;48.958;8.294;2023-03-25T12:02:35;99839.44;;;20.13;41.08
63439;BME280;49567;48.958;8.294;2023-03-25T12:07:27;99827.34;;;21.20;39.24
63439;BME280;49567;48.958;8.294;2023-03-25T12:09:57;99838.03;;;22.51;37.95
63439;BME280;49567;48.958;8.294;2023-03-25T12:12:42;99834.34;;;23.61;36.25
63439;BME280;49567;48.958;8.294;2023-03-25T12:20:55;99825.97;;;24.22;32.88
63439;BME280;49567;48.958;8.294;2023-03-25T12:29:31;99825.13;;;24.34;31.39
63439;BME280;49567;48.958;8.294;2023-03-25T12:32:02;99807.84;;;22.67;34.02
63439;BME280;49567;48.958;8.294;2023-03-25T12:34:52;99816.25;;;20.83;36.88
63439;BME280;49567;48.958;8.294;2023-03-25T12:37:30;99808.16;;;19.57;38.95
63439;BME280;49567;48.958;8.294;2023-03-25T12:40:29;99814.38;;;18.48;39.16
63439;BME280;49567;48.958;8.294;2023-03-25T12:43:32;99806.34;;;19.53;37.90
63439;BME280;49567;48.958;8.294;2023-03-25T12:46:43;99807.03;;;18.57;37.99
63439;BME280;49567;48.958;8.294;2023-03-25T12:52:15;99803.09;;;19.03;39.20
63439;BME280;49567;48.958;8.294;2023-03-25T12:54:54;99804.47;;;19.88;37.02
63439;BME280;49567;48.958;8.294;2023-03-25T12:57:37;99809.00;;;21.25;33.38
63439;BME280;49567;48.958;8.294;2023-03-25T13:00:24;99801.97;;;22.15;31.18
63439;BME280;49567;48.958;8.294;2023-03-25T13:03:10;99805.19;;;20.28;32.41
63439;BME280;49567;48.958;8.294;2023-03-25T13:05:59;99811.25;;;18.86;35.49
63439;BME280;49567;48.958;8.294;2023-03-25T13:08:35;99812.13;;;18.73;36.28
63439;BME280;49567;48.958;8.294;2023-03-25T13:11:34;99794.13;;;18.13;37.42
63439;BME280;49567;48.958;8.294;2023-03-25T13:14:05;99810.56;;;17.50;38.79
63439;BME280;49567;48.958;8.294;2023-03-25T13:16:34;99813.44;;;17.18;39.89
63439;BME280;49567;48.958;8.294;2023-03-25T13:19:06;99818.06;;;16.90;40.35
63439;BME280;49567;48.958;8.294;2023-03-25T13:21:36;99820.34;;;16.70;41.54
63439;BME280;49567;48.958;8.294;2023-03-25T13:24:08;99841.09;;;16.57;47.01
63439;BME280;49567;48.958;8.294;2023-03-25T13:26:36;99848.72;;;17.47;48.76
63439;BME280;49567;48.958;8.294;2023-03-25T13:29:05;99837.88;;;17.28;48.95
63439;BME280;49567;48.958;8.294;2023-03-25T13:31:39;99826.19;;;17.77;48.09
63439;BME280;49567;48.958;8.294;2023-03-25T13:36:49;99813.06;;;20.03;41.24
63439;BME280;49567;48.958;8.294;2023-03-25T13:39:20;99816.31;;;21.20;38.78
63439;BME280;49567;48.958;8.294;2023-03-25T13:42:02;99802.91;;;21.98;36.63
63439;BME280;49567;48.958;8.294;2023-03-25T13:44:38;99805.16;;;22.38;34.46
63439;BME280;49567;48.958;8.294;2023-03-25T13:49:40;99800.38;;;22.47;33.00
63439;BME280;49567;48.958;8.294;2023-03-25T13:52:07;99812.53;;;21.84;34.11
63439;BME280;49567;48.958;8.294;2023-03-25T13:54:43;99794.78;;;21.14;34.87
63439;BME280;49567;48.958;8.294;2023-03-25T14:11:26;99811.00;;;18.07;43.39
63439;BME280;49567;48.958;8.294;2023-03-25T14:13:56;99799.75;;;19.14;41.33
63439;BME280;49567;48.958;8.294;2023-03-25T14:16:25;99796.69;;;19.55;39.93
63439;BME280;49567;48.958;8.294;2023-03-25T14:18:57;99799.47;;;19.81;39.60
63439;BME280;49567;48.958;8.294;2023-03-25T14:26:33;99796.94;;;21.88;35.86
63439;BME280;49567;48.958;8.294;2023-03-25T14:29:05;99795.34;;;20.90;36.30
63439;BME280;49567;48.958;8.294;2023-03-25T14:31:32;99792.69;;;20.22;37.97
63439;BME280;49567;48.958;8.294;2023-03-25T14:36:30;99786.69;;;21.97;35.80
63439;BME280;49567;48.958;8.294;2023-03-25T14:39:37;99773.66;;;21.56;35.46
63439;BME280;49567;48.958;8.294;2023-03-25T14:42:10;99767.91;;;21.40;35.03
63439;BME280;49567;48.958;8.294;2023-03-25T14:44:48;99762.78;;;20.84;34.49
63439;BME280;49567;48.958;8.294;2023-03-25T14:50:05;99749.94;;;19.73;33.75
63439;BME280;49567;48.958;8.294;2023-03-25T14:53:09;99746.31;;;19.29;34.30
63439;BME280;49567;48.958;8.294;2023-03-25T14:55:46;99757.34;;;18.90;35.17
63439;BME280;49567;48.958;8.294;2023-03-25T14:58:18;99751.34;;;18.57;35.22